createdAt,value
2022-12-18T00:02:00.367Z,4.56
2022-12-18T00:04:28.895Z,4.50
2022-12-18T00:07:15.862Z,4.31
2022-12-18T00:09:56.398Z,4.26
2022-12-18T00:12:23.376Z,4.32
2022-12-18T00:14:50.361Z,4.67
2022-12-18T00:17:17.239Z,3.78
2022-12-18T00:19:44.277Z,4.64
2022-12-18T00:22:11.275Z,4.36
2022-12-18T00:24:38.260Z,3.68
2022-12-18T00:27:05.532Z,4.05
2022-12-18T00:29:32.820Z,3.95
2022-12-18T00:32:00.217Z,4.60
2022-12-18T00:34:47.879Z,4.43
2022-12-18T00:37:49.853Z,3.93
2022-12-18T00:40:50.931Z,3.96
2022-12-18T00:43:31.434Z,4.24
2022-12-18T00:45:58.736Z,3.69
2022-12-18T00:48:26.406Z,2.91
2022-12-18T00:50:53.480Z,3.14
2022-12-18T00:53:20.775Z,3.70
2022-12-18T00:55:48.286Z,3.18
2022-12-18T00:58:17.550Z,4.15
2022-12-18T01:00:45.022Z,3.28
2022-12-18T01:03:15.348Z,4.20
2022-12-18T01:05:44.476Z,3.50
2022-12-18T01:08:31.874Z,3.73
2022-12-18T01:11:18.163Z,4.21
2022-12-18T01:13:45.440Z,4.12
2022-12-18T01:16:13.607Z,4.12
2022-12-18T01:18:41.242Z,4.23
2022-12-18T01:21:14.941Z,4.15
2022-12-18T01:24:04.925Z,3.56
2022-12-18T01:26:45.487Z,3.92
2022-12-18T01:29:14.871Z,3.32
2022-12-18T01:31:42.561Z,3.27
2022-12-18T01:34:10.179Z,4.08
2022-12-18T01:36:40.086Z,4.10
2022-12-18T01:39:28.995Z,3.76
2022-12-18T01:42:30.874Z,4.35
2022-12-18T01:45:17.437Z,4.47
2022-12-18T01:48:16.865Z,4.56
2022-12-18T01:50:44.460Z,4.40
2022-12-18T01:53:15.923Z,4.07
2022-12-18T01:55:59.922Z,4.41
2022-12-18T01:58:39.562Z,3.97
2022-12-18T02:01:06.880Z,3.82
2022-12-18T02:03:33.912Z,4.47
2022-12-18T02:06:39.872Z,4.07
2022-12-18T02:09:35.565Z,3.56
2022-12-18T02:12:14.914Z,4.20
2022-12-18T02:15:07.908Z,4.15
2022-12-18T02:17:58.773Z,3.76
2022-12-18T02:20:28.788Z,4.30
2022-12-18T02:23:01.881Z,4.39
2022-12-18T02:25:41.469Z,4.34
2022-12-18T02:28:14.637Z,4.45
2022-12-18T02:30:43.372Z,4.33
2022-12-18T02:33:12.977Z,4.14
2022-12-18T02:35:42.020Z,3.73
2022-12-18T02:38:30.889Z,4.07
2022-12-18T02:41:19.834Z,3.61
2022-12-18T02:43:48.709Z,3.74
2022-12-18T02:46:37.629Z,4.25
2022-12-18T02:49:14.811Z,4.00
2022-12-18T02:51:51.718Z,4.27
2022-12-18T02:54:39.577Z,4.47
2022-12-18T02:57:34.624Z,4.06
2022-12-18T03:00:07.433Z,4.14
2022-12-18T03:02:47.446Z,3.79
2022-12-18T03:05:45.953Z,4.13
2022-12-18T03:09:12.944Z,4.07
2022-12-18T03:12:18.668Z,3.65
2022-12-18T03:14:49.880Z,4.12
2022-12-18T03:17:21.760Z,4.11
2022-12-18T03:19:50.925Z,4.39
2022-12-18T03:22:19.307Z,4.31
2022-12-18T03:24:52.724Z,3.55
2022-12-18T03:27:23.575Z,4.09
2022-12-18T03:30:08.583Z,3.57
2022-12-18T03:33:04.797Z,3.73
2022-12-18T03:35:36.657Z,4.24
2022-12-18T03:38:24.989Z,3.95
2022-12-18T03:41:53.994Z,4.02
2022-12-18T03:44:56.170Z,3.85
2022-12-18T03:47:23.112Z,3.96
2022-12-18T03:50:13.015Z,3.99
2022-12-18T03:52:44.795Z,4.15
2022-12-18T03:55:33.000Z,3.90
2022-12-18T03:58:19.537Z,3.95
2022-12-18T04:01:01.670Z,4.23
2022-12-18T04:03:31.116Z,2.51
2022-12-18T04:06:00.949Z,4.09
2022-12-18T04:08:56.067Z,4.03
2022-12-18T04:11:59.008Z,3.91
2022-12-18T04:14:39.630Z,3.73
2022-12-18T04:17:09.121Z,3.68
2022-12-18T04:19:36.157Z,3.39
2022-12-18T04:22:04.032Z,4.03
2022-12-18T04:24:37.370Z,3.91
2022-12-18T04:27:12.165Z,3.76
2022-12-18T04:29:56.944Z,4.22
2022-12-18T04:32:37.970Z,4.10
2022-12-18T04:35:07.583Z,4.25
2022-12-18T04:37:35.552Z,3.99
2022-12-18T04:40:22.948Z,3.98
2022-12-18T04:43:05.756Z,4.19
2022-12-18T04:45:33.605Z,3.76
2022-12-18T04:48:01.888Z,3.85
2022-12-18T04:50:29.332Z,3.88
2022-12-18T04:52:57.002Z,3.24
2022-12-18T04:55:24.054Z,2.99
2022-12-18T04:57:51.217Z,3.05
2022-12-18T05:00:37.985Z,2.49
2022-12-18T05:03:18.912Z,2.88
2022-12-18T05:05:45.850Z,3.16
2022-12-18T05:08:36.883Z,3.70
2022-12-18T05:11:17.789Z,3.75
2022-12-18T05:13:46.100Z,3.72
2022-12-18T05:16:15.124Z,3.63
2022-12-18T05:18:42.788Z,3.59
2022-12-18T05:21:10.055Z,3.65
2022-12-18T05:23:37.956Z,3.77
2022-12-18T05:26:07.208Z,3.57
2022-12-18T05:28:35.762Z,3.73
2022-12-18T05:31:12.424Z,3.19
2022-12-18T05:34:09.997Z,3.26
2022-12-18T05:37:12.033Z,3.19
2022-12-18T05:40:13.010Z,3.26
2022-12-18T05:42:53.635Z,3.11
2022-12-18T05:45:21.435Z,2.71
2022-12-18T05:47:48.478Z,2.68
2022-12-18T05:50:15.630Z,3.15
2022-12-18T05:52:42.627Z,2.61
2022-12-18T05:55:09.738Z,3.28
2022-12-18T05:57:39.575Z,3.31
2022-12-18T06:00:07.657Z,3.33
2022-12-18T06:02:39.325Z,3.45
2022-12-18T06:05:06.702Z,3.33
2022-12-18T06:07:57.032Z,3.14
2022-12-18T06:10:38.311Z,2.90
2022-12-18T06:13:06.559Z,3.55
2022-12-18T06:15:33.938Z,3.24
2022-12-18T06:18:04.603Z,3.40
2022-12-18T06:23:15.337Z,3.09
2022-12-18T06:25:42.242Z,2.34
2022-12-18T06:28:09.439Z,3.06
2022-12-18T06:30:37.979Z,2.72
2022-12-18T06:33:04.940Z,3.74
2022-12-18T06:35:33.258Z,2.47
2022-12-18T06:38:20.172Z,2.94
2022-12-18T06:41:26.083Z,3.39
2022-12-18T06:44:27.077Z,3.00
2022-12-18T06:47:28.072Z,2.67
2022-12-18T06:50:08.820Z,3.16
2022-12-18T06:52:35.835Z,3.14
2022-12-18T06:55:03.430Z,2.87
2022-12-18T06:57:30.590Z,2.45
2022-12-18T06:59:57.767Z,3.02
2022-12-18T07:02:24.799Z,1.88
2022-12-18T07:04:52.032Z,2.53
2022-12-18T07:07:39.057Z,2.38
2022-12-18T07:10:19.898Z,1.97
2022-12-18T07:12:46.928Z,2.00
2022-12-18T07:15:14.109Z,2.63
2022-12-18T07:17:41.156Z,1.68
2022-12-18T07:20:08.762Z,2.28
2022-12-18T07:22:35.750Z,1.28
2022-12-18T07:25:04.013Z,1.76
2022-12-18T07:27:31.096Z,2.70
2022-12-18T07:29:58.572Z,2.14
2022-12-18T07:32:46.143Z,2.30
2022-12-18T07:35:26.877Z,2.62
2022-12-18T07:37:53.799Z,2.01
2022-12-18T07:40:41.068Z,2.38
2022-12-18T07:43:21.760Z,2.64
2022-12-18T07:45:51.507Z,2.54
2022-12-18T07:48:18.668Z,2.37
2022-12-18T07:50:45.665Z,2.08
2022-12-18T07:53:12.840Z,2.48
2022-12-18T07:56:05.462Z,2.23
2022-12-18T07:58:27.132Z,2.54
2022-12-18T08:00:54.297Z,2.47
2022-12-18T08:03:21.259Z,2.31
2022-12-18T08:05:49.503Z,1.53
2022-12-18T08:08:37.058Z,1.85
2022-12-18T08:11:40.080Z,3.26
2022-12-18T08:14:20.876Z,2.17
2022-12-18T08:17:08.090Z,2.90
2022-12-18T08:19:48.630Z,3.43
2022-12-18T08:22:15.681Z,2.50
2022-12-18T08:24:42.819Z,2.03
2022-12-18T08:27:28.974Z,2.58
2022-12-18T08:29:57.339Z,3.95
2022-12-18T08:32:25.502Z,4.01
2022-12-18T08:34:52.887Z,3.67
2022-12-18T08:37:20.012Z,2.60
2022-12-18T08:40:07.107Z,3.53
2022-12-18T08:43:06.295Z,3.57
2022-12-18T08:45:35.425Z,3.05
2022-12-18T08:48:02.548Z,3.54
2022-12-18T08:50:29.858Z,3.94
2022-12-18T08:52:56.885Z,3.29
2022-12-18T08:55:23.925Z,2.70
2022-12-18T08:57:51.357Z,3.51
2022-12-18T09:00:18.748Z,2.80
2022-12-18T09:03:06.125Z,3.58
2022-12-18T09:05:48.003Z,3.79
2022-12-18T09:08:35.106Z,4.15
2022-12-18T09:11:21.615Z,4.49
2022-12-18T09:13:48.666Z,3.55
2022-12-18T09:16:16.084Z,4.57
2022-12-18T09:18:43.639Z,3.80
2022-12-18T09:21:20.262Z,4.11
2022-12-18T09:23:51.666Z,3.92
2022-12-18T09:26:18.798Z,3.10
2022-12-18T09:28:45.785Z,3.63
2022-12-18T09:31:15.531Z,4.14
2022-12-18T09:33:43.175Z,3.68
2022-12-18T09:36:17.830Z,3.59
2022-12-18T09:39:08.255Z,4.16
2022-12-18T09:42:14.154Z,5.17
2022-12-18T09:44:59.647Z,4.22
2022-12-18T09:47:31.662Z,4.30
2022-12-18T09:50:42.206Z,3.37
2022-12-18T09:53:28.410Z,3.31
2022-12-18T09:55:57.516Z,4.34
2022-12-18T09:58:37.346Z,3.93
2022-12-18T10:01:12.932Z,4.20
2022-12-18T10:03:40.162Z,4.74
2022-12-18T10:06:37.143Z,4.82
2022-12-18T10:09:38.696Z,4.70
2022-12-18T10:12:29.345Z,4.16
2022-12-18T10:15:07.396Z,4.71
2022-12-18T10:17:51.357Z,5.57
2022-12-18T10:20:38.336Z,5.32
2022-12-18T10:23:34.758Z,4.82
2022-12-18T10:26:04.274Z,5.14
2022-12-18T10:28:33.090Z,4.62
2022-12-18T10:31:00.458Z,4.01
2022-12-18T10:33:33.049Z,4.38
2022-12-18T10:36:20.217Z,4.31
2022-12-18T10:39:36.176Z,3.40
2022-12-18T10:42:20.685Z,4.42
2022-12-18T10:45:03.120Z,4.60
2022-12-18T10:47:30.780Z,4.02
2022-12-18T10:49:58.464Z,4.93
2022-12-18T10:52:29.679Z,4.74
2022-12-18T10:55:02.616Z,4.84
2022-12-18T10:57:38.731Z,5.42
2022-12-18T11:00:48.350Z,4.58
2022-12-18T11:04:02.554Z,4.34
2022-12-18T11:07:09.217Z,4.56
2022-12-18T11:10:17.262Z,4.12
2022-12-18T11:12:48.890Z,4.06
2022-12-18T11:15:22.563Z,3.86
2022-12-18T11:17:52.209Z,4.16
2022-12-18T11:20:44.237Z,3.95
2022-12-18T11:23:25.805Z,3.44
2022-12-18T11:25:56.955Z,4.25
2022-12-18T11:28:38.178Z,4.52
2022-12-18T11:31:25.418Z,5.05
2022-12-18T11:34:27.375Z,4.66
2022-12-18T11:36:48.643Z,4.47
2022-12-18T11:39:48.235Z,5.25
2022-12-18T11:42:31.818Z,4.80
2022-12-18T11:45:04.485Z,4.77
2022-12-18T11:47:40.517Z,4.78
2022-12-18T11:50:25.040Z,3.74
2022-12-18T11:52:59.277Z,4.43
2022-12-18T11:55:56.057Z,4.88
2022-12-18T11:58:38.939Z,5.09
2022-12-18T12:01:49.506Z,4.74
2022-12-18T12:04:45.163Z,5.15
2022-12-18T12:07:43.331Z,4.45
2022-12-18T12:11:08.218Z,4.71
2022-12-18T12:14:07.689Z,4.90
2022-12-18T12:16:58.605Z,4.36
2022-12-18T12:19:34.680Z,5.26
2022-12-18T12:22:25.784Z,5.27
2022-12-18T12:25:04.547Z,5.04
2022-12-18T12:28:11.857Z,5.30
2022-12-18T12:31:01.759Z,5.66
2022-12-18T12:33:45.556Z,5.93
2022-12-18T12:36:50.049Z,6.11
2022-12-18T12:39:45.361Z,5.85
2022-12-18T12:43:04.421Z,6.16
2022-12-18T12:46:03.899Z,6.12
2022-12-18T12:48:51.421Z,5.79
2022-12-18T12:51:40.235Z,5.93
2022-12-18T12:54:38.888Z,5.90
2022-12-18T12:57:08.737Z,5.78
2022-12-18T13:00:11.352Z,6.01
2022-12-18T13:02:38.747Z,6.11
2022-12-18T13:05:11.637Z,5.71
2022-12-18T13:08:07.138Z,6.29
2022-12-18T13:11:28.582Z,6.19
2022-12-18T13:14:22.927Z,6.16
2022-12-18T13:16:50.280Z,5.48
2022-12-18T13:19:27.357Z,5.81
2022-12-18T13:21:56.405Z,5.52
2022-12-18T13:24:30.984Z,6.17
2022-12-18T13:26:58.147Z,6.08
2022-12-18T13:29:46.285Z,6.17
2022-12-18T13:32:22.989Z,5.99
2022-12-18T13:35:21.057Z,4.97
2022-12-18T13:38:10.284Z,5.62
2022-12-18T13:41:15.234Z,5.14
2022-12-18T13:44:13.040Z,5.35
2022-12-18T13:46:45.860Z,5.70
2022-12-18T13:49:13.598Z,5.83
2022-12-18T13:51:55.354Z,5.04
2022-12-18T13:54:41.325Z,5.56
2022-12-18T13:57:39.426Z,5.83
2022-12-18T14:00:33.985Z,5.87
2022-12-18T14:03:01.421Z,5.55
2022-12-18T14:05:51.377Z,5.59
2022-12-18T14:08:55.315Z,5.68
2022-12-18T14:12:21.283Z,5.45
2022-12-18T14:15:02.221Z,5.61
2022-12-18T14:17:30.242Z,4.77
2022-12-18T14:19:58.929Z,4.99
2022-12-18T14:22:33.304Z,4.64
2022-12-18T14:25:32.367Z,5.28
2022-12-18T14:28:16.734Z,5.50
2022-12-18T14:30:46.006Z,5.44
2022-12-18T14:33:15.135Z,4.19
2022-12-18T14:35:54.570Z,5.50
2022-12-18T14:38:22.577Z,5.37
2022-12-18T14:41:01.558Z,5.04
2022-12-18T14:43:50.297Z,5.21
2022-12-18T14:46:34.251Z,5.58
2022-12-18T14:49:06.859Z,5.06
2022-12-18T14:51:35.855Z,4.76
2022-12-18T14:54:10.107Z,4.67
2022-12-18T14:56:44.716Z,5.33
2022-12-18T14:59:23.873Z,4.48
2022-12-18T15:01:57.715Z,5.31
2022-12-18T15:04:36.414Z,3.89
2022-12-18T15:07:26.339Z,5.41
2022-12-18T15:10:29.799Z,4.38
2022-12-18T15:13:21.665Z,5.26
2022-12-18T15:15:50.204Z,5.28
2022-12-18T15:18:21.180Z,5.03
2022-12-18T15:20:51.857Z,4.98
2022-12-18T15:23:20.985Z,5.04
2022-12-18T15:26:03.765Z,4.94
2022-12-18T15:28:38.969Z,4.52
2022-12-18T15:31:07.414Z,4.78
2022-12-18T15:33:37.538Z,4.09
2022-12-18T15:36:09.783Z,4.46
2022-12-18T15:38:37.453Z,4.07
2022-12-18T15:41:06.166Z,4.23
2022-12-18T15:43:56.430Z,4.14
2022-12-18T15:46:37.086Z,4.52
2022-12-18T15:49:04.094Z,4.06
2022-12-18T15:51:53.913Z,3.96
2022-12-18T15:54:52.647Z,3.67
2022-12-18T15:57:40.361Z,3.61
2022-12-18T16:00:20.924Z,3.25
2022-12-18T16:02:48.807Z,3.68
2022-12-18T16:05:38.345Z,3.34
2022-12-18T16:08:39.888Z,3.95
2022-12-18T16:11:47.355Z,3.70
2022-12-18T16:14:31.292Z,3.82
2022-12-18T16:17:01.214Z,3.74
2022-12-18T16:19:29.079Z,3.68
2022-12-18T16:21:57.788Z,3.42
2022-12-18T16:24:30.597Z,3.59
2022-12-18T16:27:00.393Z,2.95
2022-12-18T16:29:29.412Z,2.65
2022-12-18T16:31:57.879Z,2.51
2022-12-18T16:34:29.286Z,3.07
2022-12-18T16:37:05.141Z,2.75
2022-12-18T16:39:36.300Z,3.16
2022-12-18T16:42:57.493Z,3.27
2022-12-18T16:45:38.032Z,3.02
2022-12-18T16:48:05.281Z,3.45
2022-12-18T16:50:32.444Z,2.89
2022-12-18T16:53:00.318Z,2.10
2022-12-18T16:55:27.550Z,2.92
2022-12-18T16:57:54.835Z,2.65
2022-12-18T17:00:21.907Z,3.02
2022-12-18T17:02:49.737Z,2.92
2022-12-18T17:05:17.206Z,2.94
2022-12-18T17:08:04.370Z,2.67
2022-12-18T17:11:05.407Z,2.11
2022-12-18T17:13:46.178Z,2.82
2022-12-18T17:16:13.620Z,2.08
2022-12-18T17:18:40.710Z,2.98
2022-12-18T17:21:09.735Z,2.47
2022-12-18T17:23:38.017Z,2.83
2022-12-18T17:26:07.370Z,2.95
2022-12-18T17:28:55.441Z,2.33
2022-12-18T17:31:56.552Z,3.53
2022-12-18T17:34:38.219Z,3.25
2022-12-18T17:37:05.283Z,2.53
2022-12-18T17:39:33.600Z,3.32
2022-12-18T17:42:01.445Z,2.02
2022-12-18T17:44:29.076Z,3.11
2022-12-18T17:46:56.258Z,3.32
2022-12-18T17:49:23.549Z,2.90
2022-12-18T17:52:10.495Z,3.38
2022-12-18T17:54:51.012Z,3.87
2022-12-18T17:57:18.180Z,2.80
2022-12-18T17:59:45.220Z,2.98
2022-12-18T18:02:13.710Z,3.55
2022-12-18T18:04:41.259Z,3.42
2022-12-18T18:07:28.688Z,3.59
2022-12-18T18:10:29.747Z,3.82
2022-12-18T18:13:56.426Z,3.90
2022-12-18T18:16:39.639Z,3.81
2022-12-18T18:19:09.345Z,3.86
2022-12-18T18:21:41.127Z,3.83
2022-12-18T18:24:10.075Z,3.80
2022-12-18T18:26:37.926Z,3.50
2022-12-18T18:29:29.036Z,3.68
2022-12-18T18:32:30.412Z,3.65
2022-12-18T18:35:24.621Z,3.38
2022-12-18T18:37:58.710Z,3.82
2022-12-18T18:40:25.781Z,3.39
2022-12-18T18:42:56.226Z,2.90
2022-12-18T18:45:43.502Z,2.60
2022-12-18T18:48:30.827Z,3.25
2022-12-18T18:51:07.230Z,2.04
2022-12-18T18:53:59.596Z,2.34
2022-12-18T18:57:12.033Z,1.69
2022-12-18T18:59:41.443Z,2.52
2022-12-18T19:02:22.293Z,2.14
2022-12-18T19:04:49.341Z,2.15
2022-12-18T19:07:36.449Z,2.85
2022-12-18T19:10:37.514Z,3.08
2022-12-18T19:13:21.258Z,3.33
2022-12-18T19:15:49.192Z,2.74
2022-12-18T19:18:16.452Z,3.33
2022-12-18T19:20:43.816Z,2.54
2022-12-18T19:23:11.895Z,3.11
2022-12-18T19:25:41.685Z,2.65
2022-12-18T19:28:32.482Z,3.05
2022-12-18T19:31:36.116Z,3.04
2022-12-18T19:34:17.093Z,2.88
2022-12-18T19:36:44.092Z,1.83
2022-12-18T19:39:15.590Z,2.23
2022-12-18T19:41:43.786Z,2.09
2022-12-18T19:44:31.627Z,2.76
2022-12-18T19:47:32.482Z,2.54
2022-12-18T19:50:14.842Z,2.85
2022-12-18T19:53:01.463Z,1.00
2022-12-18T19:55:45.810Z,2.44
2022-12-18T19:58:35.501Z,1.80
2022-12-18T20:01:38.566Z,2.88
2022-12-18T20:04:19.095Z,2.44
2022-12-18T20:07:07.481Z,2.95
2022-12-18T20:09:48.051Z,2.69
2022-12-18T20:12:15.975Z,2.78
2022-12-18T20:15:03.560Z,2.31
2022-12-18T20:17:45.243Z,2.67
2022-12-18T20:20:12.360Z,2.57
2022-12-18T20:22:40.499Z,2.83
2022-12-18T20:25:07.999Z,3.40
2022-12-18T20:27:35.302Z,3.51
2022-12-18T20:30:02.363Z,2.23
2022-12-18T20:32:50.510Z,3.12
2022-12-18T20:35:52.636Z,3.67
2022-12-18T20:38:34.695Z,3.87
2022-12-18T20:41:05.343Z,3.81
2022-12-18T20:43:32.278Z,3.36
2022-12-18T20:46:21.557Z,3.49
2022-12-18T20:49:03.483Z,3.50
2022-12-18T20:51:31.920Z,2.83
2022-12-18T20:53:59.848Z,2.89
2022-12-18T20:56:27.659Z,2.82
2022-12-18T20:59:14.473Z,3.65
2022-12-18T21:01:55.566Z,3.24
2022-12-18T21:04:23.317Z,3.77
2022-12-18T21:07:10.524Z,3.19
2022-12-18T21:10:11.628Z,2.98
2022-12-18T21:13:00.856Z,3.12
2022-12-18T21:15:51.574Z,3.14
2022-12-18T21:18:52.548Z,2.74
2022-12-18T21:21:38.464Z,2.76
2022-12-18T21:24:07.356Z,2.80
2022-12-18T21:26:34.566Z,2.59
2022-12-18T21:29:04.722Z,2.21
2022-12-18T21:31:35.024Z,2.05
2022-12-18T21:34:03.806Z,2.75
2022-12-18T21:36:31.949Z,2.36
2022-12-18T21:39:19.922Z,2.82
2022-12-18T21:42:43.485Z,3.15
2022-12-18T21:45:24.165Z,2.42
2022-12-18T21:47:51.251Z,2.20
2022-12-18T21:50:18.616Z,2.82
2022-12-18T21:52:45.677Z,1.85
2022-12-18T21:55:12.738Z,1.76
2022-12-18T21:57:39.890Z,2.36
2022-12-18T22:00:27.503Z,1.47
2022-12-18T22:03:28.716Z,2.44
2022-12-18T22:06:29.743Z,2.67
2022-12-18T22:09:32.473Z,1.86
2022-12-18T22:12:43.930Z,2.64
2022-12-18T22:15:41.594Z,3.22
2022-12-18T22:18:22.934Z,1.94
2022-12-18T22:20:49.949Z,1.97
2022-12-18T22:23:16.981Z,2.36
2022-12-18T22:25:44.133Z,2.76
2022-12-18T22:28:29.695Z,2.48
2022-12-18T22:30:59.159Z,2.40
2022-12-18T22:33:27.090Z,1.94
2022-12-18T22:35:54.100Z,2.04
2022-12-18T22:38:21.143Z,2.54
2022-12-18T22:40:48.211Z,2.64
2022-12-18T22:43:15.353Z,2.16
2022-12-18T22:45:42.484Z,2.58
2022-12-18T22:48:29.803Z,2.34
2022-12-18T22:51:31.587Z,2.60
2022-12-18T22:54:29.747Z,3.14
2022-12-18T22:56:57.253Z,3.06
2022-12-18T22:59:24.767Z,2.79
2022-12-18T23:01:56.248Z,3.10
2022-12-18T23:04:36.064Z,2.81
2022-12-18T23:07:23.512Z,2.39
2022-12-18T23:10:04.667Z,2.64
2022-12-18T23:12:31.686Z,1.84
2022-12-18T23:15:26.046Z,2.63
2022-12-18T23:18:17.850Z,3.09
2022-12-18T23:20:44.966Z,2.27
2022-12-18T23:23:13.148Z,2.47
2022-12-18T23:25:41.814Z,2.85
2022-12-18T23:28:08.748Z,2.39
2022-12-18T23:30:36.040Z,2.44
2022-12-18T23:33:03.081Z,2.22
2022-12-18T23:35:50.575Z,2.17
2022-12-18T23:38:51.681Z,3.23
2022-12-18T23:41:52.613Z,2.93
2022-12-18T23:44:33.501Z,3.20
2022-12-18T23:47:00.578Z,3.14
2022-12-18T23:49:27.574Z,3.11
2022-12-18T23:51:55.542Z,3.37
2022-12-18T23:54:33.110Z,2.81
2022-12-18T23:57:01.678Z,3.18
2022-12-18T23:59:28.868Z,3.33
